Time;durP1;ratioP1;P1;durP2;ratioP2;P2;SDS_P1;SDS_P2;PMS_P1;PMS_P2;Temp;Humidity;BMP_temperature;BMP_pressure;BME280_temperature;BME280_humidity;BME280_pressure;Samples;Min_cycle;Max_cycle;Signal;HPM_P1;HPM_P2
2022/01/29 00:00:55;;;;;;;21.75;15.18;;;9.90;79.10;;;;;;5020942;28;20053;-82
2022/01/29 00:03:22;;;;;;;22.55;16.27;;;9.90;79.10;;;;;;5016972;28;20022;-84
2022/01/29 00:05:49;;;;;;;21.75;16.02;;;9.90;79.10;;;;;;5001136;28;20454;-83
2022/01/29 00:08:15;;;;;;;21.95;15.90;;;9.90;79.10;;;;;;5001959;28;20033;-82
2022/01/29 00:10:43;;;;;;;23.35;16.65;;;9.90;79.10;;;;;;5001662;28;20398;-83
2022/01/29 00:13:09;;;;;;;21.83;16.00;;;9.90;79.20;;;;;;5001661;28;20128;-86
2022/01/29 00:15:35;;;;;;;20.40;15.02;;;9.90;79.10;;;;;;5001116;28;20033;-83
2022/01/29 00:18:01;;;;;;;19.77;14.77;;;9.90;79.10;;;;;;5016805;28;20017;-83
2022/01/29 00:20:27;;;;;;;20.52;14.70;;;9.90;79.10;;;;;;5014385;28;20478;-82
2022/01/29 00:22:54;;;;;;;20.35;15.25;;;9.90;79.10;;;;;;4988386;28;20082;-82
2022/01/29 00:25:20;;;;;;;22.05;15.77;;;9.90;79.10;;;;;;5004182;28;20509;-83
2022/01/29 00:27:46;;;;;;;21.67;16.25;;;9.90;79.10;;;;;;5004446;28;20033;-84
2022/01/29 00:30:17;;;;;;;22.80;16.23;;;9.90;79.10;;;;;;5000538;28;20437;-83
2022/01/29 00:32:43;;;;;;;21.52;15.60;;;9.90;79.10;;;;;;5001988;28;20132;-83
2022/01/29 00:35:09;;;;;;;21.65;15.75;;;9.90;79.10;;;;;;5000908;28;20461;-82
2022/01/29 00:37:35;;;;;;;21.75;15.90;;;9.90;79.10;;;;;;5000797;28;20099;-82
2022/01/29 00:40:02;;;;;;;21.05;15.05;;;9.90;79.10;;;;;;4998801;28;20033;-83
2022/01/29 00:42:28;;;;;;;18.98;14.55;;;9.90;79.10;;;;;;5033089;28;20029;-82
2022/01/29 00:44:54;;;;;;;21.80;16.02;;;9.90;79.10;;;;;;5015428;28;20033;-82
2022/01/29 00:47:20;;;;;;;21.38;15.45;;;9.80;79.10;;;;;;5016252;28;20116;-82
2022/01/29 00:49:46;;;;;;;20.05;14.40;;;9.90;79.10;;;;;;5018257;28;20116;-83
2022/01/29 00:52:12;;;;;;;20.63;14.80;;;9.90;79.10;;;;;;5003750;28;20029;-85
2022/01/29 00:54:38;;;;;;;21.80;15.25;;;9.90;79.10;;;;;;5003851;28;20060;-83
2022/01/29 00:57:05;;;;;;;21.45;15.27;;;9.80;79.10;;;;;;5020565;28;20370;-83
2022/01/29 00:59:32;;;;;;;19.92;14.40;;;9.90;79.10;;;;;;5003930;28;20044;-83
2022/01/29 01:01:58;;;;;;;22.45;15.18;;;9.90;79.10;;;;;;5019363;28;20041;-83
2022/01/29 01:04:24;;;;;;;20.98;14.65;;;9.90;79.10;;;;;;5019765;28;20094;-83
2022/01/29 01:06:50;;;;;;;20.98;15.30;;;9.90;79.10;;;;;;5003804;28;20029;-82
2022/01/29 01:09:15;;;;;;;21.30;15.85;;;9.80;79.10;;;;;;5003535;28;20354;-84
2022/01/29 01:11:41;;;;;;;21.42;15.23;;;9.80;79.10;;;;;;5003854;28;20044;-86
2022/01/29 01:14:07;;;;;;;21.15;15.50;;;9.80;79.10;;;;;;5035916;28;20029;-82
2022/01/29 01:16:33;;;;;;;20.42;14.85;;;9.80;79.10;;;;;;5019719;28;20067;-82
2022/01/29 01:19:00;;;;;;;19.08;14.85;;;9.90;79.10;;;;;;5002959;28;20133;-84
2022/01/29 01:21:26;;;;;;;22.50;14.98;;;9.80;79.10;;;;;;5019561;28;20029;-83
2022/01/29 01:23:51;;;;;;;19.58;14.38;;;9.80;79.10;;;;;;5019724;28;20039;-82
2022/01/29 01:26:18;;;;;;;20.73;14.88;;;9.80;79.20;;;;;;5014593;28;20462;-83
2022/01/29 01:28:44;;;;;;;21.00;15.52;;;9.80;79.10;;;;;;5000055;28;20033;-82
2022/01/29 01:31:10;;;;;;;21.30;15.18;;;9.80;79.10;;;;;;5016236;28;20036;-82
2022/01/29 01:33:36;;;;;;;21.42;15.32;;;9.80;79.10;;;;;;5033563;28;20127;-82
2022/01/29 01:36:05;;;;;;;21.50;15.48;;;9.80;79.10;;;;;;4983643;28;20470;-83
2022/01/29 01:38:49;;;;;;;20.55;14.80;;;9.80;79.10;;;;;;4999226;28;20080;-82
2022/01/29 01:41:21;;;;;;;19.17;14.73;;;9.80;79.10;;;;;;4999456;28;20030;-86
2022/01/29 01:43:47;;;;;;;20.15;14.90;;;9.80;79.10;;;;;;4984403;28;20091;-83
2022/01/29 01:46:12;;;;;;;19.13;14.02;;;9.80;79.10;;;;;;4999615;28;20025;-83
2022/01/29 01:48:38;;;;;;;20.40;14.75;;;9.80;79.10;;;;;;4999710;28;20018;-82
2022/01/29 01:51:05;;;;;;;21.95;15.43;;;9.80;79.10;;;;;;5015776;28;20053;-82
2022/01/29 01:53:31;;;;;;;19.33;14.75;;;9.80;79.20;;;;;;4998447;28;20045;-82
2022/01/29 01:55:56;;;;;;;19.80;14.57;;;9.80;79.20;;;;;;5015340;28;20382;-83
2022/01/29 01:58:22;;;;;;;19.40;14.70;;;9.80;79.10;;;;;;5015274;28;20029;-83
2022/01/29 02:00:48;;;;;;;22.70;15.55;;;9.80;79.10;;;;;;4999625;28;20359;-82
2022/01/29 02:03:14;;;;;;;19.33;14.02;;;9.80;79.10;;;;;;4983018;28;20029;-84
2022/01/29 02:05:40;;;;;;;19.27;14.20;;;9.80;79.10;;;;;;5001592;28;20037;-82
2022/01/29 02:08:07;;;;;;;20.13;14.40;;;9.80;79.10;;;;;;5002653;28;20029;-82
2022/01/29 02:10:33;;;;;;;20.60;14.90;;;9.70;79.70;;;;;;5017833;28;20025;-84
2022/01/29 02:13:03;;;;;;;19.92;14.57;;;9.80;79.10;;;;;;5017426;28;20094;-82
2022/01/29 02:15:30;;;;;;;19.38;15.00;;;9.80;79.10;;;;;;5001726;28;20197;-84
2022/01/29 02:17:56;;;;;;;19.60;14.40;;;9.80;79.20;;;;;;5018248;28;20025;-83
2022/01/29 02:20:26;;;;;;;20.33;14.32;;;9.80;79.10;;;;;;5017491;28;20393;-84
2022/01/29 02:22:52;;;;;;;18.88;13.98;;;9.80;79.20;;;;;;5034518;28;20033;-82
2022/01/29 02:25:44;;;;;;;18.80;14.25;;;9.80;79.20;;;;;;5017735;28;20086;-83
2022/01/29 02:28:12;;;;;;;17.75;13.55;;;9.80;79.30;;;;;;5017389;28;20443;-83
2022/01/29 02:30:40;;;;;;;19.17;13.43;;;9.80;79.10;;;;;;5018068;28;20021;-84
2022/01/29 02:33:10;;;;;;;19.55;14.25;;;9.80;79.20;;;;;;5017824;28;20025;-83
2022/01/29 02:35:42;;;;;;;19.67;14.45;;;9.70;79.20;;;;;;5018054;28;20082;-82
2022/01/29 02:38:10;;;;;;;18.40;13.65;;;9.70;79.10;;;;;;5017965;28;20151;-83
2022/01/29 02:40:43;;;;;;;20.08;14.68;;;9.80;79.20;;;;;;5011412;28;20017;-82
2022/01/29 02:43:21;;;;;;;17.10;13.63;;;9.80;79.20;;;;;;5013827;28;20037;-82
2022/01/29 02:45:48;;;;;;;18.08;13.35;;;9.70;79.20;;;;;;5014299;28;20041;-82
2022/01/29 02:48:14;;;;;;;17.38;12.88;;;9.70;79.20;;;;;;5014442;28;20030;-83
2022/01/29 02:50:41;;;;;;;19.50;13.60;;;9.70;79.20;;;;;;5014666;28;20026;-82
2022/01/29 02:53:07;;;;;;;18.20;13.93;;;9.70;79.20;;;;;;5010056;28;20429;-84
2022/01/29 02:55:34;;;;;;;18.00;13.07;;;9.80;79.20;;;;;;4998212;28;20390;-83
2022/01/29 02:58:01;;;;;;;20.60;14.55;;;9.70;79.20;;;;;;5028720;28;20065;-83
2022/01/29 03:00:27;;;;;;;20.48;15.32;;;9.80;79.20;;;;;;4980958;28;20039;-82
2022/01/29 03:02:53;;;;;;;18.85;13.68;;;9.80;79.20;;;;;;5006072;28;20385;-82
2022/01/29 03:05:21;;;;;;;16.80;13.98;;;9.80;79.20;;;;;;5016821;28;20056;-83
2022/01/29 03:07:47;;;;;;;20.33;14.85;;;9.80;79.20;;;;;;5014082;28;20060;-82
2022/01/29 03:10:13;;;;;;;19.92;13.70;;;9.80;79.20;;;;;;5011837;28;20040;-83
2022/01/29 03:12:41;;;;;;;16.48;13.88;;;9.80;79.20;;;;;;4996874;28;20025;-84
2022/01/29 03:15:12;;;;;;;16.55;13.48;;;9.80;79.20;;;;;;4999258;28;20041;-82
2022/01/29 03:17:38;;;;;;;17.52;13.60;;;9.80;79.20;;;;;;5002225;28;20128;-83
2022/01/29 03:20:06;;;;;;;18.35;13.73;;;9.80;79.20;;;;;;5011620;28;20164;-82
2022/01/29 03:22:34;;;;;;;17.60;13.80;;;9.80;79.20;;;;;;5024935;28;20481;-83
2022/01/29 03:25:00;;;;;;;17.42;12.48;;;9.80;79.20;;;;;;5016785;28;20046;-82
2022/01/29 03:27:26;;;;;;;15.95;12.82;;;9.80;79.20;;;;;;5016033;28;20445;-84
2022/01/29 03:29:52;;;;;;;16.73;13.23;;;9.80;79.20;;;;;;4977155;28;20037;-82
2022/01/29 03:32:18;;;;;;;15.68;12.57;;;9.80;79.20;;;;;;4981381;28;20500;-83
2022/01/29 03:34:43;;;;;;;16.15;12.40;;;9.80;79.20;;;;;;5013786;28;20034;-82
2022/01/29 03:37:39;;;;;;;16.67;12.45;;;9.80;79.20;;;;;;5025775;28;20060;-82
2022/01/29 03:40:19;;;;;;;18.02;14.00;;;9.80;79.30;;;;;;5021448;28;20033;-82
2022/01/29 03:42:56;;;;;;;16.02;12.55;;;9.80;79.30;;;;;;5005167;28;20033;-83
2022/01/29 03:45:33;;;;;;;17.25;12.82;;;9.80;79.20;;;;;;5030920;28;20482;-82
2022/01/29 03:48:01;;;;;;;18.23;13.17;;;9.70;79.20;;;;;;5034088;28;20504;-82
2022/01/29 03:50:28;;;;;;;15.07;12.30;;;9.80;79.20;;;;;;5007547;28;20037;-82
2022/01/29 03:52:57;;;;;;;15.05;11.93;;;9.80;79.30;;;;;;5013218;28;20705;-81
2022/01/29 03:55:47;;;;;;;16.67;12.95;;;9.80;79.90;;;;;;5021034;28;20049;-84
2022/01/29 03:58:15;;;;;;;16.33;11.88;;;9.70;79.40;;;;;;5010910;28;20041;-81
2022/01/29 04:00:51;;;;;;;14.75;11.80;;;9.80;79.30;;;;;;5008723;28;20036;-82
2022/01/29 04:03:20;;;;;;;13.70;11.50;;;9.80;79.40;;;;;;5019072;28;20046;-82
2022/01/29 04:05:53;;;;;;;13.93;11.10;;;9.80;79.30;;;;;;4998398;28;20041;-81
2022/01/29 04:08:25;;;;;;;16.33;12.43;;;9.80;79.30;;;;;;5021516;28;20026;-81
2022/01/29 04:10:53;;;;;;;14.57;11.48;;;9.80;79.30;;;;;;5011811;28;20041;-82
2022/01/29 04:13:23;;;;;;;14.05;11.38;;;9.80;79.30;;;;;;5008824;28;20040;-83
2022/01/29 04:15:50;;;;;;;15.05;11.35;;;9.80;79.40;;;;;;4984799;28;20038;-82
2022/01/29 04:18:20;;;;;;;15.65;11.18;;;9.80;79.30;;;;;;5015513;28;20091;-82
2022/01/29 04:20:46;;;;;;;14.38;11.55;;;9.80;79.30;;;;;;4973810;28;20200;-82
2022/01/29 04:23:12;;;;;;;14.52;10.98;;;9.80;79.30;;;;;;4997178;28;20044;-82
2022/01/29 04:25:38;;;;;;;14.70;11.48;;;9.80;79.30;;;;;;4990618;28;20042;-82
2022/01/29 04:28:05;;;;;;;13.80;11.05;;;9.80;79.40;;;;;;5004226;28;20413;-82
2022/01/29 04:30:46;;;;;;;15.03;11.00;;;9.80;79.30;;;;;;4970370;28;20034;-82
2022/01/29 04:35:50;;;;;;;15.05;11.85;;;9.80;79.30;;;;;;4996045;28;20041;-82
2022/01/29 04:38:17;;;;;;;16.20;12.02;;;9.80;79.30;;;;;;4960179;28;20088;-83
2022/01/29 04:40:43;;;;;;;14.27;11.45;;;9.80;79.30;;;;;;4983475;28;20026;-82
2022/01/29 04:43:10;;;;;;;15.98;12.70;;;9.80;79.40;;;;;;4979861;28;20115;-87
2022/01/29 04:45:36;;;;;;;13.98;11.50;;;9.80;79.30;;;;;;4982180;28;20038;-82
2022/01/29 04:48:03;;;;;;;14.55;11.57;;;9.80;79.30;;;;;;4992116;28;20025;-83
2022/01/29 04:50:31;;;;;;;14.50;11.23;;;9.80;79.30;;;;;;5005196;28;20029;-84
2022/01/29 04:52:59;;;;;;;14.13;11.43;;;9.80;79.40;;;;;;4999757;28;20075;-82
2022/01/29 04:55:46;;;;;;;15.75;12.05;;;9.80;79.30;;;;;;5000244;28;20029;-82
2022/01/29 04:58:16;;;;;;;15.68;11.77;;;9.80;79.50;;;;;;4983320;28;20402;-82
2022/01/29 05:00:42;;;;;;;14.50;11.88;;;9.80;79.30;;;;;;4989157;28;20049;-81
2022/01/29 05:03:27;;;;;;;16.27;12.48;;;9.80;79.40;;;;;;4980343;28;20597;-82
2022/01/29 05:05:53;;;;;;;15.43;11.32;;;9.80;79.50;;;;;;4981954;28;20049;-82
2022/01/29 05:08:20;;;;;;;15.40;12.20;;;9.80;79.40;;;;;;4987054;28;20026;-82
2022/01/29 05:10:47;;;;;;;15.32;11.82;;;9.80;79.40;;;;;;5028962;28;20047;-83
2022/01/29 05:13:19;;;;;;;16.52;12.05;;;9.80;79.40;;;;;;4987968;28;20025;-83
2022/01/29 05:27:02;;;;;;;16.27;11.90;;;9.80;79.40;;;;;;5018898;28;20288;-83
2022/01/29 05:29:31;;;;;;;16.83;12.30;;;9.80;79.40;;;;;;5010510;28;20025;-83
2022/01/29 05:31:58;;;;;;;17.23;13.35;;;9.80;79.40;;;;;;5020149;28;20049;-83
2022/01/29 05:34:24;;;;;;;16.98;12.63;;;9.80;79.50;;;;;;5014515;28;20036;-82
2022/01/29 05:36:51;;;;;;;15.50;12.05;;;9.80;79.40;;;;;;5016408;28;20068;-82
2022/01/29 05:39:18;;;;;;;16.48;12.23;;;9.80;79.40;;;;;;5007536;28;20116;-84
2022/01/29 05:41:44;;;;;;;16.02;12.52;;;9.90;79.50;;;;;;5015641;28;20129;-82
2022/01/29 05:44:12;;;;;;;17.02;12.65;;;9.90;79.50;;;;;;5001981;28;20362;-82
2022/01/29 05:46:40;;;;;;;16.23;12.15;;;9.90;79.50;;;;;;5027475;28;20033;-82
2022/01/29 05:49:06;;;;;;;17.55;12.85;;;9.90;79.40;;;;;;4998976;28;20021;-82
2022/01/29 05:51:32;;;;;;;16.13;12.27;;;9.90;79.40;;;;;;5042565;28;20037;-82
2022/01/29 05:54:01;;;;;;;16.58;12.90;;;9.90;79.40;;;;;;5015338;28;20544;-81
2022/01/29 05:56:37;;;;;;;17.45;13.70;;;9.90;79.60;;;;;;4991537;28;20139;-82
2022/01/29 05:59:03;;;;;;;19.13;13.55;;;9.90;79.50;;;;;;5000431;28;20106;-82
2022/01/29 06:01:37;;;;;;;18.33;13.23;;;10.00;79.50;;;;;;5007411;28;20133;-81
2022/01/29 06:04:03;;;;;;;17.33;13.55;;;9.90;79.50;;;;;;5023594;28;20045;-81
2022/01/29 06:06:34;;;;;;;17.88;14.02;;;9.90;79.40;;;;;;5024800;28;20043;-82
2022/01/29 06:09:07;;;;;;;17.67;13.60;;;10.00;79.50;;;;;;5005703;28;20048;-83
2022/01/29 06:11:35;;;;;;;16.90;13.10;;;9.90;79.50;;;;;;5011714;28;20057;-83
2022/01/29 06:14:01;;;;;;;18.42;12.82;;;9.90;79.40;;;;;;5000643;28;20067;-82
2022/01/29 06:16:33;;;;;;;17.83;13.48;;;10.00;79.50;;;;;;5009445;28;20080;-82
2022/01/29 06:19:01;;;;;;;19.40;13.80;;;10.00;79.50;;;;;;4983044;28;20057;-82
2022/01/29 06:21:28;;;;;;;16.52;12.90;;;10.00;79.50;;;;;;4995076;28;20045;-82
2022/01/29 06:23:58;;;;;;;18.50;13.32;;;10.00;79.50;;;;;;5011520;28;20033;-81
2022/01/29 06:26:25;;;;;;;17.25;12.77;;;10.00;79.50;;;;;;4994335;28;20057;-83
2022/01/29 06:28:52;;;;;;;16.45;12.65;;;10.00;79.50;;;;;;5001395;28;20067;-81
2022/01/29 06:31:19;;;;;;;17.48;12.68;;;10.00;79.50;;;;;;4998562;28;20049;-82
2022/01/29 06:33:47;;;;;;;15.82;12.18;;;10.00;79.50;;;;;;4960218;28;20045;-81
2022/01/29 06:36:15;;;;;;;17.88;13.30;;;10.00;79.50;;;;;;4979448;28;20026;-81
2022/01/29 06:38:41;;;;;;;18.42;13.10;;;10.00;79.50;;;;;;4986907;28;20026;-81
2022/01/29 06:41:07;;;;;;;15.63;12.15;;;10.00;79.40;;;;;;4969450;28;20068;-81
2022/01/29 06:43:41;;;;;;;16.65;12.10;;;10.00;79.50;;;;;;4993646;28;20041;-81
2022/01/29 06:46:21;;;;;;;15.95;12.30;;;10.00;79.50;;;;;;5004792;28;20042;-82
2022/01/29 06:48:47;;;;;;;16.25;12.57;;;10.00;79.50;;;;;;4979548;28;20045;-81
2022/01/29 06:51:25;;;;;;;16.30;12.38;;;10.00;79.40;;;;;;5009947;28;20070;-81
2022/01/29 06:53:53;;;;;;;16.77;12.60;;;10.00;79.50;;;;;;4994926;28;20030;-82
2022/01/29 06:56:28;;;;;;;15.50;12.35;;;10.00;79.40;;;;;;5000654;28;20067;-83
2022/01/29 06:58:53;;;;;;;17.23;12.85;;;10.10;79.50;;;;;;5003227;28;20116;-80
2022/01/29 07:01:19;;;;;;;15.55;12.57;;;10.10;79.50;;;;;;4962674;28;20466;-81
2022/01/29 07:03:46;;;;;;;16.83;12.85;;;10.10;79.50;;;;;;4994217;28;20454;-81
2022/01/29 07:06:12;;;;;;;16.27;12.73;;;10.10;79.50;;;;;;4962478;28;20049;-81
2022/01/29 07:08:39;;;;;;;14.18;11.68;;;10.10;79.50;;;;;;5002710;28;20497;-83
2022/01/29 07:11:05;;;;;;;15.75;11.82;;;10.10;79.50;;;;;;4996567;28;20026;-81
2022/01/29 07:13:32;;;;;;;17.77;12.82;;;10.10;79.40;;;;;;4997630;28;20025;-81
2022/01/29 07:15:58;;;;;;;13.75;10.90;;;10.10;79.50;;;;;;4981379;28;20030;-81
2022/01/29 07:18:26;;;;;;;16.20;12.25;;;10.10;79.40;;;;;;4994163;28;20168;-80
2022/01/29 07:20:53;;;;;;;14.90;11.18;;;10.10;79.50;;;;;;4977217;28;20049;-82
2022/01/29 07:23:20;;;;;;;15.13;11.57;;;10.10;79.40;;;;;;4981540;28;20124;-81
2022/01/29 07:25:47;;;;;;;14.43;11.25;;;10.10;79.50;;;;;;4978293;28;20092;-81
2022/01/29 07:28:12;;;;;;;13.50;10.82;;;10.10;79.40;;;;;;4996095;28;20548;-81
2022/01/29 07:30:39;;;;;;;14.63;11.35;;;10.20;79.50;;;;;;4953988;28;20104;-82
2022/01/29 07:33:06;;;;;;;13.50;10.63;;;10.20;79.50;;;;;;4989972;28;20030;-81
2022/01/29 07:35:32;;;;;;;14.65;11.20;;;10.20;79.50;;;;;;4985989;28;20390;-82
2022/01/29 07:37:58;;;;;;;15.23;10.98;;;10.20;79.50;;;;;;4982775;28;20034;-81
2022/01/29 07:40:24;;;;;;;14.90;10.50;;;10.20;79.50;;;;;;4961913;28;20026;-83
2022/01/29 07:42:49;;;;;;;13.82;10.32;;;10.20;79.50;;;;;;4987162;28;20570;-81
2022/01/29 07:45:15;;;;;;;14.13;10.77;;;10.20;79.40;;;;;;4973855;28;20121;-82
2022/01/29 07:47:44;;;;;;;14.30;10.75;;;10.20;79.40;;;;;;4997316;28;20028;-83
2022/01/29 07:50:10;;;;;;;12.90;10.63;;;10.30;79.50;;;;;;4994408;28;20022;-81
2022/01/29 07:52:40;;;;;;;12.65;9.70;;;10.30;79.50;;;;;;4997261;28;20462;-81
2022/01/29 07:55:10;;;;;;;12.45;9.55;;;10.20;79.40;;;;;;5007149;28;20042;-82
2022/01/29 07:57:36;;;;;;;13.30;9.73;;;10.30;79.50;;;;;;4974863;28;20048;-83
2022/01/29 08:00:05;;;;;;;12.48;10.13;;;10.30;79.40;;;;;;4982155;28;20037;-83
2022/01/29 08:02:39;;;;;;;13.18;9.82;;;10.30;79.50;;;;;;5011118;28;20084;-83
2022/01/29 08:05:15;;;;;;;11.30;9.43;;;10.30;79.40;;;;;;4982915;28;20102;-82
2022/01/29 08:08:15;;;;;;;11.95;8.98;;;10.30;79.40;;;;;;4997029;28;20550;-81
2022/01/29 08:10:42;;;;;;;10.40;8.43;;;10.30;79.40;;;;;;4989784;28;20038;-82
2022/01/29 08:13:11;;;;;;;10.50;8.30;;;10.30;79.40;;;;;;4998320;28;20109;-81
2022/01/29 08:15:38;;;;;;;11.30;8.93;;;10.30;79.50;;;;;;4995959;28;20053;-82
2022/01/29 08:18:05;;;;;;;10.80;8.15;;;10.40;79.50;;;;;;4988697;28;20026;-82
2022/01/29 08:20:35;;;;;;;10.40;8.23;;;10.30;79.50;;;;;;5009913;28;20490;-83
2022/01/29 08:23:07;;;;;;;10.60;8.48;;;10.40;79.50;;;;;;4998097;28;20116;-84
2022/01/29 08:25:41;;;;;;;10.90;9.10;;;10.40;79.50;;;;;;5009727;28;20033;-82
2022/01/29 08:28:08;;;;;;;10.38;7.88;;;10.40;79.50;;;;;;5012405;28;20132;-82
2022/01/29 08:30:34;;;;;;;9.48;7.45;;;10.40;79.40;;;;;;5009460;28;20026;-81
2022/01/29 08:33:07;;;;;;;9.82;7.50;;;10.40;79.40;;;;;;5016571;28;20107;-82
2022/01/29 08:35:33;;;;;;;9.43;7.65;;;10.40;79.50;;;;;;5016674;28;20049;-83
2022/01/29 08:38:00;;;;;;;9.35;7.13;;;10.40;79.50;;;;;;5006254;28;20021;-83
2022/01/29 08:40:27;;;;;;;9.32;7.35;;;10.40;79.50;;;;;;4980657;28;20154;-83
2022/01/29 08:42:54;;;;;;;8.63;7.20;;;10.40;79.50;;;;;;5005002;28;20032;-82
2022/01/29 08:45:23;;;;;;;9.40;7.20;;;10.50;79.50;;;;;;4997292;28;20045;-85
2022/01/29 08:47:49;;;;;;;8.98;7.25;;;10.50;79.50;;;;;;5021671;28;20071;-84
2022/01/29 08:50:21;;;;;;;8.63;6.82;;;10.50;79.50;;;;;;5013487;28;20029;-84
2022/01/29 08:52:47;;;;;;;9.65;7.80;;;10.50;79.50;;;;;;4990017;28;20478;-84
2022/01/29 08:55:16;;;;;;;9.20;7.03;;;10.50;79.50;;;;;;5011185;28;20040;-82
2022/01/29 08:57:42;;;;;;;9.75;7.20;;;10.60;79.50;;;;;;5014466;28;20026;-82
2022/01/29 09:00:15;;;;;;;8.13;6.72;;;10.60;79.50;;;;;;5011921;28;20467;-83
2022/01/29 09:02:41;;;;;;;8.65;6.30;;;10.50;79.50;;;;;;4996804;28;20030;-83
2022/01/29 09:05:08;;;;;;;7.80;6.45;;;10.60;79.50;;;;;;5011477;28;20041;-84
2022/01/29 09:07:36;;;;;;;8.13;6.53;;;10.60;79.50;;;;;;4996616;28;20030;-80
2022/01/29 09:10:12;;;;;;;9.73;6.50;;;10.60;79.50;;;;;;4999717;28;20124;-84
2022/01/29 09:12:37;;;;;;;7.45;5.93;;;10.60;79.50;;;;;;5013433;28;20034;-84
2022/01/29 09:15:05;;;;;;;8.70;6.88;;;10.60;79.50;;;;;;5021180;28;20504;-83
2022/01/29 09:17:31;;;;;;;8.05;6.38;;;10.60;79.50;;;;;;4986823;28;20044;-82
2022/01/29 09:19:57;;;;;;;8.63;6.07;;;10.70;79.50;;;;;;4995158;28;20418;-84
2022/01/29 09:22:25;;;;;;;8.07;6.30;;;10.70;79.50;;;;;;5005035;28;20034;-83
2022/01/29 09:24:51;;;;;;;7.97;6.05;;;10.70;79.50;;;;;;5011359;28;20085;-83
2022/01/29 09:27:17;;;;;;;7.38;6.03;;;10.70;79.50;;;;;;5004444;28;20029;-83
2022/01/29 09:29:46;;;;;;;7.25;6.07;;;10.70;79.50;;;;;;4990727;28;20026;-82
2022/01/29 09:32:12;;;;;;;8.02;6.03;;;10.70;79.50;;;;;;5004356;28;20041;-82
2022/01/29 09:34:38;;;;;;;7.20;5.63;;;10.70;79.50;;;;;;5003343;28;20534;-82
2022/01/29 09:37:04;;;;;;;8.23;5.88;;;10.70;79.50;;;;;;5011192;28;20537;-82
2022/01/29 09:39:31;;;;;;;7.07;5.43;;;10.80;79.50;;;;;;4997987;28;20125;-83
2022/01/29 09:42:01;;;;;;;7.65;6.13;;;10.80;79.50;;;;;;5010153;28;20091;-82
2022/01/29 09:44:30;;;;;;;6.45;5.20;;;10.80;79.50;;;;;;5002538;28;20034;-83
2022/01/29 09:46:57;;;;;;;7.15;5.57;;;10.80;79.50;;;;;;5015481;28;20034;-83
2022/01/29 09:49:25;;;;;;;7.95;6.15;;;10.80;79.50;;;;;;5023740;28;20021;-82
2022/01/29 09:51:51;;;;;;;7.25;5.50;;;10.80;79.50;;;;;;4998767;28;20029;-82
2022/01/29 09:54:17;;;;;;;8.40;5.95;;;10.90;79.50;;;;;;5011455;28;20041;-81
2022/01/29 09:56:43;;;;;;;8.63;6.07;;;10.90;79.50;;;;;;4997043;28;20037;-83
2022/01/29 09:59:08;;;;;;;6.53;5.35;;;10.90;79.50;;;;;;4994343;28;20026;-87
2022/01/29 10:01:34;;;;;;;7.65;5.65;;;10.90;79.50;;;;;;4977356;28;20034;-82
2022/01/29 10:04:05;;;;;;;6.72;5.50;;;10.90;79.40;;;;;;4979613;28;20021;-84
2022/01/29 10:06:32;;;;;;;6.47;5.60;;;11.00;79.50;;;;;;5002004;28;20172;-84
2022/01/29 10:09:01;;;;;;;6.88;5.30;;;11.00;79.50;;;;;;5013640;28;20029;-82
2022/01/29 10:11:27;;;;;;;6.60;5.40;;;11.00;79.50;;;;;;5005655;28;20128;-82
2022/01/29 10:14:04;;;;;;;6.70;5.30;;;11.00;79.50;;;;;;5014792;28;20107;-83
2022/01/29 10:16:32;;;;;;;6.72;5.00;;;11.00;79.50;;;;;;5005588;28;20041;-82
2022/01/29 10:19:03;;;;;;;6.88;5.47;;;11.00;79.50;;;;;;5011696;28;20017;-82
2022/01/29 10:21:34;;;;;;;6.38;4.68;;;11.00;79.50;;;;;;5004716;28;20041;-83
2022/01/29 10:24:06;;;;;;;6.50;4.93;;;11.00;79.50;;;;;;4999270;28;20065;-84
2022/01/29 10:26:34;;;;;;;6.72;5.40;;;11.10;79.50;;;;;;5004563;28;20034;-84
2022/01/29 10:29:01;;;;;;;6.35;4.85;;;11.10;79.50;;;;;;5002644;28;20037;-83
2022/01/29 10:31:45;;;;;;;6.15;4.75;;;11.10;79.50;;;;;;5005853;28;20026;-82
2022/01/29 10:34:22;;;;;;;5.97;4.78;;;11.10;79.60;;;;;;5010763;28;20038;-83
2022/01/29 10:37:19;;;;;;;6.10;4.72;;;11.10;79.40;;;;;;5023902;28;20035;-83
2022/01/29 10:39:55;;;;;;;6.13;4.60;;;11.10;79.60;;;;;;4999300;28;20239;-83
2022/01/29 10:42:23;;;;;;;6.22;4.60;;;11.10;79.40;;;;;;5008211;28;20538;-83
2022/01/29 10:45:09;;;;;;;6.10;4.35;;;11.10;79.40;;;;;;5021961;28;20092;-81
2022/01/29 10:47:55;;;;;;;6.90;4.38;;;11.10;79.60;;;;;;5004166;28;20034;-82
2022/01/29 10:50:21;;;;;;;5.35;4.15;;;11.20;79.60;;;;;;5006856;28;20072;-83
2022/01/29 10:52:48;;;;;;;5.35;4.13;;;11.20;79.50;;;;;;5006848;28;20033;-82
2022/01/29 10:55:14;;;;;;;5.20;3.92;;;11.20;79.50;;;;;;4989084;28;20099;-84
2022/01/29 10:57:48;;;;;;;5.97;4.00;;;11.20;79.50;;;;;;5012399;28;20029;-83
2022/01/29 11:00:21;;;;;;;5.47;4.00;;;11.20;79.50;;;;;;5005916;28;20038;-83
2022/01/29 11:02:51;;;;;;;5.30;4.00;;;11.30;79.50;;;;;;5016269;28;20028;-82
2022/01/29 11:05:18;;;;;;;5.35;4.10;;;11.30;79.50;;;;;;5003678;28;20537;-84
2022/01/29 11:07:50;;;;;;;4.90;3.70;;;11.30;79.50;;;;;;5007456;28;20099;-83
2022/01/29 11:10:20;;;;;;;5.32;3.97;;;11.30;79.50;;;;;;4998970;28;20088;-86
2022/01/29 11:12:49;;;;;;;5.57;3.95;;;11.30;79.50;;;;;;5022107;28;20034;-83
2022/01/29 11:15:20;;;;;;;4.78;3.60;;;11.30;79.50;;;;;;5005563;28;20029;-84
2022/01/29 11:17:48;;;;;;;5.95;3.72;;;11.40;79.50;;;;;;5021138;28;20076;-85
2022/01/29 11:20:15;;;;;;;5.75;3.63;;;11.40;79.50;;;;;;5015153;28;20069;-85
2022/01/29 11:22:44;;;;;;;4.10;3.20;;;11.40;79.50;;;;;;4972389;28;20046;-85
2022/01/29 11:25:30;;;;;;;4.57;3.60;;;11.40;79.40;;;;;;4986566;28;20461;-82
2022/01/29 11:28:17;;;;;;;5.05;3.25;;;11.40;79.50;;;;;;4996722;28;20056;-82
2022/01/29 11:30:45;;;;;;;3.78;3.00;;;11.40;79.50;;;;;;5001536;28;20033;-84
2022/01/29 11:33:11;;;;;;;4.32;3.00;;;11.50;79.40;;;;;;4990178;28;20026;-85
2022/01/29 11:35:58;;;;;;;4.40;2.97;;;11.50;79.40;;;;;;4993693;28;20397;-84
2022/01/29 11:38:33;;;;;;;4.22;2.92;;;11.50;79.60;;;;;;4985598;28;20053;-83
2022/01/29 11:41:04;;;;;;;3.47;2.67;;;11.50;79.40;;;;;;4977666;28;20033;-84
2022/01/29 11:43:36;;;;;;;4.82;2.90;;;11.60;79.50;;;;;;4992302;28;20511;-83
2022/01/29 11:46:06;;;;;;;3.95;2.92;;;11.50;79.40;;;;;;4999449;28;20045;-83
2022/01/29 11:48:37;;;;;;;3.75;2.58;;;11.60;79.40;;;;;;4985344;28;20034;-85
2022/01/29 11:51:11;;;;;;;3.25;2.60;;;11.60;79.40;;;;;;4996866;28;20034;-82
2022/01/29 11:53:46;;;;;;;3.60;2.45;;;11.60;79.40;;;;;;4996187;28;20034;-85
2022/01/29 11:56:33;;;;;;;3.45;2.50;;;11.70;79.50;;;;;;4990570;28;20113;-85
2022/01/29 11:59:20;;;;;;;4.45;2.63;;;11.60;79.50;;;;;;4996523;28;20485;-83
2022/01/29 12:01:48;;;;;;;1.95;1.85;;;11.70;79.50;;;;;;4980982;28;20394;-82
2022/01/29 12:04:16;;;;;;;2.88;2.30;;;11.70;79.40;;;;;;4992815;28;20084;-83
2022/01/29 12:07:25;;;;;;;2.95;2.10;;;11.70;79.40;;;;;;4985799;28;20117;-84
2022/01/29 12:10:06;;;;;;;3.72;2.25;;;11.70;79.50;;;;;;4994339;28;20389;-84
2022/01/29 12:12:40;;;;;;;2.78;2.22;;;11.80;79.40;;;;;;4986329;28;20044;-83
2022/01/29 12:15:09;;;;;;;4.22;2.50;;;11.80;79.40;;;;;;4978203;28;20038;-83
2022/01/29 12:17:46;;;;;;;2.78;2.08;;;11.80;79.40;;;;;;4983906;28;20467;-83
2022/01/29 12:20:24;;;;;;;2.50;1.70;;;11.80;79.40;;;;;;4982116;28;20048;-86
2022/01/29 12:23:11;;;;;;;2.70;1.90;;;11.80;79.40;;;;;;5008929;28;20037;-84
2022/01/29 12:25:37;;;;;;;2.58;1.73;;;11.80;79.30;;;;;;5017717;28;20034;-83
2022/01/29 12:28:05;;;;;;;2.55;1.80;;;11.90;79.40;;;;;;5002067;28;20034;-83
2022/01/29 12:30:39;;;;;;;3.55;1.80;;;11.90;79.40;;;;;;5012977;28;20026;-82
2022/01/29 12:33:13;;;;;;;4.57;1.90;;;11.90;79.30;;;;;;5009567;28;20158;-83
2022/01/29 12:35:58;;;;;;;4.17;1.87;;;11.90;79.30;;;;;;5002154;28;20029;-83
2022/01/29 12:38:29;;;;;;;2.42;1.90;;;11.90;79.30;;;;;;5011002;28;20050;-84
2022/01/29 12:41:02;;;;;;;3.28;2.00;;;12.00;79.30;;;;;;5012025;28;20030;-83
2022/01/29 12:43:33;;;;;;;2.60;1.73;;;12.00;79.30;;;;;;5011890;28;20112;-83
2022/01/29 12:46:12;;;;;;;1.98;1.60;;;12.00;79.30;;;;;;5024988;28;20091;-83
2022/01/29 12:48:57;;;;;;;2.22;1.67;;;12.00;79.40;;;;;;5023044;28;20060;-83
2022/01/29 12:51:22;;;;;;;2.88;1.67;;;12.00;79.30;;;;;;5021593;28;20514;-82
2022/01/29 12:53:56;;;;;;;2.55;1.60;;;12.10;79.90;;;;;;5004683;28;20030;-83
2022/01/29 12:56:28;;;;;;;2.90;1.77;;;12.10;79.30;;;;;;5008640;28;20108;-84
2022/01/29 12:58:54;;;;;;;2.60;1.85;;;12.10;79.20;;;;;;5015871;28;20470;-85
2022/01/29 13:01:24;;;;;;;2.38;1.63;;;12.10;79.20;;;;;;5013522;28;20026;-82
2022/01/29 13:04:06;;;;;;;2.58;1.50;;;12.10;79.20;;;;;;5006341;28;20034;-82